Time;durP1;ratioP1;P1;durP2;ratioP2;P2;SDS_P1;SDS_P2;PMS_P1;PMS_P2;Temp;Humidity;BMP_temperature;BMP_pressure;BME280_temperature;BME280_humidity;BME280_pressure;Samples;Min_cycle;Max_cycle;Signal;HPM_P1;HPM_P2
2021/12/12 00:01:30;;;;;;;10.80;5.90;;;4.70;98.80;;;;;;5062445;28;20836;-46
2021/12/12 00:04:09;;;;;;;15.43;6.60;;;4.80;98.60;;;;;;5064418;28;20474;-46
2021/12/12 00:06:39;;;;;;;10.03;5.37;;;4.70;98.20;;;;;;5067744;28;20532;-47
2021/12/12 00:09:09;;;;;;;16.00;6.03;;;4.60;98.10;;;;;;5062738;28;21104;-46
2021/12/12 00:11:38;;;;;;;14.23;5.27;;;4.60;98.20;;;;;;5079947;28;20495;-47
2021/12/12 00:14:08;;;;;;;5.80;4.30;;;4.60;98.30;;;;;;5063224;28;20474;-47
2021/12/12 00:16:37;;;;;;;14.30;6.10;;;4.70;98.40;;;;;;5071977;28;20486;-47
2021/12/12 00:19:05;;;;;;;10.77;5.20;;;4.80;98.40;;;;;;5069089;28;20890;-49
2021/12/12 00:21:34;;;;;;;20.70;5.10;;;4.80;98.20;;;;;;5071825;28;20758;-46
2021/12/12 00:24:01;;;;;;;15.70;5.33;;;4.70;98.30;;;;;;5066559;28;20482;-46
2021/12/12 00:26:28;;;;;;;7.27;4.90;;;4.70;98.70;;;;;;5071425;28;20471;-46
2021/12/12 00:28:55;;;;;;;10.40;5.87;;;4.70;98.40;;;;;;5071092;28;21756;-46
2021/12/12 00:31:24;;;;;;;15.57;6.90;;;4.70;98.80;;;;;;5068419;28;21007;-47
2021/12/12 00:33:54;;;;;;;18.27;6.23;;;4.70;98.50;;;;;;5071268;28;20478;-46
2021/12/12 00:36:22;;;;;;;11.60;5.20;;;4.80;98.60;;;;;;5067499;28;21048;-46
2021/12/12 00:38:54;;;;;;;13.03;6.23;;;4.80;98.40;;;;;;5069237;28;20941;-46
2021/12/12 00:41:27;;;;;;;11.93;5.60;;;4.80;98.40;;;;;;5060184;28;20486;-46
2021/12/12 00:43:54;;;;;;;16.90;6.20;;;4.80;98.60;;;;;;5061485;28;20479;-46
2021/12/12 00:46:23;;;;;;;16.00;5.80;;;4.90;98.60;;;;;;5067870;28;20473;-47
2021/12/12 00:48:52;;;;;;;10.50;4.87;;;5.00;98.50;;;;;;5071379;28;20973;-47
2021/12/12 00:51:23;;;;;;;14.30;6.63;;;4.90;98.40;;;;;;5066722;28;20481;-47
2021/12/12 00:53:50;;;;;;;14.27;6.93;;;4.90;98.20;;;;;;5077775;28;20477;-47
2021/12/12 00:56:18;;;;;;;10.43;5.13;;;4.90;98.30;;;;;;5071131;28;20490;-47
2021/12/12 00:58:45;;;;;;;30.50;10.63;;;4.80;98.20;;;;;;5062574;28;20474;-47
2021/12/12 01:01:18;;;;;;;9.67;5.70;;;4.70;98.20;;;;;;5054494;28;20573;-47
2021/12/12 01:03:49;;;;;;;12.53;5.23;;;4.60;98.40;;;;;;5062338;28;20486;-47
2021/12/12 01:06:19;;;;;;;12.73;5.90;;;4.60;98.50;;;;;;5081172;28;20503;-47
2021/12/12 01:08:48;;;;;;;6.93;4.90;;;4.60;98.40;;;;;;5070482;28;21093;-47
2021/12/12 01:11:18;;;;;;;15.13;5.50;;;4.60;98.30;;;;;;5069590;28;20483;-47
2021/12/12 01:13:46;;;;;;;10.27;5.03;;;4.50;98.30;;;;;;5069255;28;20475;-47
2021/12/12 01:16:16;;;;;;;14.33;5.23;;;4.50;98.40;;;;;;5066113;28;20501;-47
2021/12/12 01:18:54;;;;;;;13.17;5.63;;;4.40;98.40;;;;;;5067137;28;20493;-47
2021/12/12 01:21:27;;;;;;;6.43;4.77;;;4.40;98.50;;;;;;5066796;28;20818;-47
2021/12/12 01:23:58;;;;;;;9.27;4.70;;;4.50;98.60;;;;;;5041982;28;20478;-47
2021/12/12 01:26:28;;;;;;;7.00;3.90;;;4.40;98.50;;;;;;5073432;28;20555;-46
2021/12/12 01:28:56;;;;;;;8.10;4.07;;;4.50;98.60;;;;;;5030022;28;20482;-46
2021/12/12 01:31:29;;;;;;;9.53;4.77;;;4.60;98.60;;;;;;5077506;28;20477;-47
2021/12/12 01:34:09;;;;;;;10.60;4.17;;;4.70;98.40;;;;;;5067023;28;20527;-46
2021/12/12 01:36:51;;;;;;;13.10;4.43;;;4.70;98.30;;;;;;5064548;28;20524;-46
2021/12/12 01:39:20;;;;;;;6.70;4.10;;;4.70;98.10;;;;;;5066490;28;20481;-46
2021/12/12 01:41:53;;;;;;;8.83;4.43;;;4.70;98.20;;;;;;5067117;28;21021;-47
2021/12/12 01:44:23;;;;;;;15.77;3.97;;;4.70;98.40;;;;;;5072755;28;20700;-47
2021/12/12 01:46:59;;;;;;;16.60;4.23;;;4.70;98.20;;;;;;5063714;28;20475;-47
2021/12/12 01:49:27;;;;;;;8.50;4.43;;;4.70;98.30;;;;;;5067566;28;20485;-47
2021/12/12 01:51:57;;;;;;;8.63;4.40;;;4.70;98.20;;;;;;5067378;28;20583;-47
2021/12/12 01:54:29;;;;;;;9.53;4.30;;;4.60;98.20;;;;;;5066343;28;20575;-46
2021/12/12 01:56:59;;;;;;;5.70;4.50;;;4.60;98.20;;;;;;5068529;28;20484;-47
2021/12/12 01:59:29;;;;;;;10.00;5.30;;;4.60;98.30;;;;;;5065594;28;20525;-47
2021/12/12 02:02:04;;;;;;;7.90;4.27;;;4.70;98.30;;;;;;5053681;28;20526;-47
2021/12/12 02:04:36;;;;;;;6.10;4.50;;;4.80;98.30;;;;;;5079926;28;20553;-46
2021/12/12 02:07:07;;;;;;;16.40;5.37;;;4.80;98.10;;;;;;5065737;28;20520;-47
2021/12/12 02:09:34;;;;;;;7.07;4.37;;;4.90;97.80;;;;;;5069909;28;20471;-47
2021/12/12 02:12:02;;;;;;;8.80;4.53;;;4.80;97.80;;;;;;5066865;28;20481;-47
2021/12/12 02:14:32;;;;;;;15.30;5.23;;;4.70;97.70;;;;;;5068434;28;20485;-47
2021/12/12 02:17:04;;;;;;;8.70;6.00;;;4.60;97.80;;;;;;5066646;28;20903;-46
2021/12/12 02:19:39;;;;;;;6.87;4.97;;;4.50;97.90;;;;;;5068295;28;20488;-47
2021/12/12 02:22:30;;;;;;;18.53;5.73;;;4.40;98.00;;;;;;5055346;28;20496;-47
2021/12/12 02:35:56;;;;;;;9.03;4.47;;;4.50;97.90;;;;;;5058334;28;21896;-47
2021/12/12 02:38:29;;;;;;;10.63;5.77;;;4.40;97.90;;;;;;5066150;28;21023;-48
2021/12/12 02:40:58;;;;;;;11.10;4.63;;;4.30;98.00;;;;;;5062077;28;20984;-47
2021/12/12 02:43:27;;;;;;;14.47;4.57;;;4.20;98.20;;;;;;5077431;28;20495;-47
2021/12/12 02:45:56;;;;;;;5.97;4.20;;;4.30;98.40;;;;;;5063177;28;20484;-47
2021/12/12 02:48:27;;;;;;;8.90;5.00;;;4.30;98.40;;;;;;5063190;28;20481;-47
2021/12/12 02:50:53;;;;;;;14.40;6.87;;;4.40;98.10;;;;;;5061691;28;20994;-47
2021/12/12 02:53:25;;;;;;;10.93;5.50;;;4.40;98.10;;;;;;5069846;28;20493;-47
2021/12/12 02:55:55;;;;;;;9.30;5.57;;;4.30;98.10;;;;;;5039894;28;20497;-47
2021/12/12 02:58:23;;;;;;;6.40;4.60;;;4.30;98.00;;;;;;5073326;28;20481;-47
2021/12/12 03:00:56;;;;;;;9.70;5.20;;;4.20;98.10;;;;;;5070002;28;20887;-47
2021/12/12 03:03:25;;;;;;;14.33;5.50;;;4.30;98.30;;;;;;5063390;28;20482;-46
2021/12/12 03:05:52;;;;;;;10.00;5.90;;;4.30;98.20;;;;;;5075781;28;20530;-47
2021/12/12 03:08:19;;;;;;;10.43;4.77;;;4.30;98.00;;;;;;5054877;28;21133;-47
2021/12/12 03:10:50;;;;;;;11.80;5.10;;;4.30;98.00;;;;;;5060664;28;20486;-47
2021/12/12 03:13:18;;;;;;;14.10;5.87;;;4.30;98.00;;;;;;5068187;28;20474;-47
2021/12/12 03:15:48;;;;;;;11.90;4.87;;;4.30;98.00;;;;;;5084803;28;20498;-47
2021/12/12 03:18:20;;;;;;;12.03;4.13;;;4.20;98.10;;;;;;5061098;28;20478;-47
2021/12/12 03:20:51;;;;;;;14.03;4.67;;;4.20;98.10;;;;;;5090426;28;20489;-47
2021/12/12 03:23:21;;;;;;;5.40;3.80;;;4.10;98.10;;;;;;5075876;28;20483;-47
2021/12/12 03:25:53;;;;;;;9.03;4.10;;;4.00;98.20;;;;;;5076594;28;20493;-47
2021/12/12 03:28:25;;;;;;;13.60;4.90;;;3.90;98.10;;;;;;5073600;28;20895;-48
2021/12/12 03:30:55;;;;;;;6.20;4.37;;;4.00;98.40;;;;;;5078267;28;20489;-47
2021/12/12 03:33:23;;;;;;;7.80;4.20;;;4.00;98.30;;;;;;5076778;28;20477;-47
2021/12/12 03:35:51;;;;;;;10.47;5.60;;;4.00;98.20;;;;;;5078920;28;20542;-47
2021/12/12 03:38:19;;;;;;;18.53;4.80;;;4.00;98.10;;;;;;5077886;28;21006;-47
2021/12/12 03:40:47;;;;;;;11.73;5.07;;;3.90;97.80;;;;;;5072702;28;20501;-47
2021/12/12 03:43:15;;;;;;;9.47;4.00;;;3.70;98.00;;;;;;5073298;28;20479;-47
2021/12/12 03:45:44;;;;;;;10.80;4.33;;;3.60;98.10;;;;;;5078889;28;20490;-47
2021/12/12 03:48:15;;;;;;;6.63;4.50;;;3.50;98.30;;;;;;5081450;28;20479;-47
2021/12/12 03:50:46;;;;;;;13.20;5.17;;;3.50;98.40;;;;;;5082466;28;20972;-48
2021/12/12 03:53:15;;;;;;;8.63;5.00;;;3.50;98.50;;;;;;5076457;28;21043;-48
2021/12/12 03:55:43;;;;;;;7.43;4.73;;;3.40;98.50;;;;;;5079882;28;20489;-47
2021/12/12 03:58:11;;;;;;;9.20;4.70;;;3.40;98.60;;;;;;5082262;28;20486;-46
2021/12/12 04:00:46;;;;;;;10.03;4.63;;;3.30;98.60;;;;;;5080935;28;20485;-47
2021/12/12 04:03:14;;;;;;;13.60;5.60;;;3.30;98.80;;;;;;5079972;28;20668;-46
2021/12/12 04:05:45;;;;;;;8.63;3.97;;;3.30;98.80;;;;;;5081110;28;20476;-46
2021/12/12 04:08:12;;;;;;;9.03;5.17;;;3.30;99.10;;;;;;5053954;28;20474;-46
2021/12/12 04:10:39;;;;;;;9.27;4.10;;;3.40;99.00;;;;;;5075606;28;20527;-47
2021/12/12 04:13:06;;;;;;;11.70;4.40;;;3.40;99.00;;;;;;5080671;28;20563;-48
2021/12/12 04:15:33;;;;;;;14.07;4.77;;;3.40;98.90;;;;;;5075354;28;20476;-46
2021/12/12 04:18:02;;;;;;;14.83;4.87;;;3.50;99.00;;;;;;5084687;28;20478;-46
2021/12/12 04:20:32;;;;;;;5.33;3.90;;;3.50;99.00;;;;;;5079646;28;20486;-46
2021/12/12 04:22:59;;;;;;;8.17;4.07;;;3.60;98.90;;;;;;5077210;28;20539;-46
2021/12/12 04:25:27;;;;;;;8.77;4.53;;;3.70;98.70;;;;;;5064438;28;20487;-47
2021/12/12 04:27:54;;;;;;;10.87;4.17;;;3.70;98.70;;;;;;5097309;28;20547;-46
2021/12/12 04:30:23;;;;;;;4.77;4.03;;;3.70;98.60;;;;;;5080116;28;20454;-46
2021/12/12 04:32:51;;;;;;;15.83;4.50;;;3.70;98.40;;;;;;5077516;28;20561;-46
2021/12/12 04:35:22;;;;;;;12.10;4.13;;;3.70;98.50;;;;;;5084149;28;20485;-46
2021/12/12 04:37:50;;;;;;;10.80;3.33;;;3.70;98.60;;;;;;5079327;28;20853;-46
2021/12/12 04:40:20;;;;;;;9.70;4.10;;;3.70;98.60;;;;;;5080531;28;20490;-46
2021/12/12 04:42:48;;;;;;;5.87;3.07;;;3.70;98.60;;;;;;5077127;28;20900;-46
2021/12/12 04:45:26;;;;;;;12.73;3.77;;;3.70;98.60;;;;;;5082803;28;20478;-46
2021/12/12 04:50:52;;;;;;;4.97;3.87;;;3.80;98.70;;;;;;5067394;28;20529;-47
2021/12/12 04:53:26;;;;;;;6.57;3.27;;;3.80;98.40;;;;;;5082649;28;20481;-46
2021/12/12 04:55:57;;;;;;;4.33;2.50;;;3.80;98.70;;;;;;5080834;28;21002;-47
2021/12/12 04:58:32;;;;;;;8.10;4.20;;;3.90;98.70;;;;;;5078409;28;20847;-46
2021/12/12 05:01:04;;;;;;;8.53;3.03;;;3.90;98.60;;;;;;5081275;27;20471;-46
2021/12/12 05:03:41;;;;;;;4.27;3.03;;;4.00;98.60;;;;;;5059738;28;20482;-46
2021/12/12 05:06:14;;;;;;;7.60;3.17;;;4.00;98.60;;;;;;5079740;28;20519;-46
2021/12/12 05:08:49;;;;;;;9.13;2.93;;;4.00;98.60;;;;;;5077394;28;20478;-47
2021/12/12 05:11:24;;;;;;;7.37;2.93;;;4.00;98.50;;;;;;5070275;28;21051;-46
2021/12/12 05:13:55;;;;;;;5.73;3.03;;;4.00;98.50;;;;;;5069284;28;20476;-47
2021/12/12 05:16:25;;;;;;;8.63;2.93;;;4.10;98.50;;;;;;5078778;28;20473;-47
2021/12/12 05:19:03;;;;;;;6.27;2.97;;;4.00;98.30;;;;;;5078717;28;20878;-47
2021/12/12 05:21:36;;;;;;;8.07;3.97;;;3.90;98.40;;;;;;5077471;28;20506;-47
2021/12/12 05:24:06;;;;;;;7.20;3.37;;;3.80;98.50;;;;;;5075542;28;20857;-46
2021/12/12 05:26:36;;;;;;;4.57;2.63;;;3.70;98.80;;;;;;5076756;28;22101;-46
2021/12/12 05:29:06;;;;;;;6.60;3.17;;;3.70;99.00;;;;;;5075695;28;20484;-46
2021/12/12 05:31:34;;;;;;;16.10;3.70;;;3.80;98.80;;;;;;5074137;28;20501;-46
2021/12/12 05:34:02;;;;;;;5.90;3.43;;;3.80;98.90;;;;;;5073541;28;20490;-46
2021/12/12 05:36:33;;;;;;;9.40;3.23;;;3.80;98.90;;;;;;5072492;28;20489;-47
2021/12/12 05:39:01;;;;;;;5.53;4.20;;;3.80;98.90;;;;;;5072651;28;20481;-47
2021/12/12 05:41:28;;;;;;;6.60;2.63;;;3.70;98.80;;;;;;5076344;28;20491;-46
2021/12/12 05:43:57;;;;;;;6.30;3.80;;;3.70;99.00;;;;;;5066955;28;20469;-47
2021/12/12 05:46:24;;;;;;;7.57;5.03;;;3.70;98.90;;;;;;5087875;28;20544;-49
2021/12/12 05:48:53;;;;;;;11.33;3.47;;;3.70;98.80;;;;;;5079045;28;20887;-47
2021/12/12 05:51:21;;;;;;;6.37;2.70;;;3.80;98.80;;;;;;5074729;28;20555;-47
2021/12/12 05:53:51;;;;;;;9.83;3.30;;;3.80;99.00;;;;;;5075002;28;20570;-46
2021/12/12 05:56:21;;;;;;;13.43;2.70;;;3.90;98.80;;;;;;5084413;28;20546;-47
2021/12/12 05:58:48;;;;;;;8.87;2.73;;;3.90;98.70;;;;;;5081081;28;20490;-47
2021/12/12 06:01:15;;;;;;;6.03;3.10;;;3.90;98.70;;;;;;5073462;28;20508;-46
2021/12/12 06:03:43;;;;;;;6.70;2.90;;;4.00;98.90;;;;;;5081042;28;20491;-47
2021/12/12 06:06:12;;;;;;;6.27;3.00;;;3.90;98.80;;;;;;5079626;28;20493;-46
2021/12/12 06:08:41;;;;;;;11.33;3.07;;;4.00;98.80;;;;;;5072298;28;20489;-47
2021/12/12 06:11:10;;;;;;;7.43;3.17;;;4.00;98.80;;;;;;5068844;28;20492;-47
2021/12/12 06:13:38;;;;;;;6.33;3.30;;;4.00;98.70;;;;;;5075471;28;20493;-47
2021/12/12 06:16:07;;;;;;;7.50;3.30;;;4.00;98.80;;;;;;5071536;28;20495;-46
2021/12/12 06:18:36;;;;;;;4.30;2.70;;;3.90;98.70;;;;;;5076282;28;20489;-46
2021/12/12 06:21:04;;;;;;;3.50;2.80;;;3.90;98.80;;;;;;5076327;28;20462;-46
2021/12/12 06:23:31;;;;;;;5.57;2.77;;;3.90;98.70;;;;;;5080498;28;20478;-46
2021/12/12 06:25:58;;;;;;;5.83;2.50;;;3.90;98.80;;;;;;5081545;28;20481;-46
2021/12/12 06:28:30;;;;;;;3.43;2.77;;;3.90;98.80;;;;;;5072469;28;20567;-47
2021/12/12 06:30:58;;;;;;;5.33;2.27;;;4.00;98.90;;;;;;5074054;28;20485;-46
2021/12/12 06:33:25;;;;;;;4.67;2.37;;;4.10;99.00;;;;;;5063050;28;20994;-47
2021/12/12 06:35:52;;;;;;;7.30;2.90;;;4.10;98.90;;;;;;5066466;28;20503;-47
2021/12/12 06:38:21;;;;;;;5.10;2.50;;;4.10;98.70;;;;;;5070684;28;20475;-47
2021/12/12 06:40:49;;;;;;;8.17;3.13;;;4.20;98.80;;;;;;5073376;28;20478;-51
2021/12/12 06:43:18;;;;;;;3.63;2.23;;;4.10;98.50;;;;;;5073704;28;20484;-46
2021/12/12 06:45:47;;;;;;;7.97;2.93;;;4.10;98.70;;;;;;5071850;28;21096;-46
2021/12/12 06:48:16;;;;;;;8.07;2.80;;;4.10;98.70;;;;;;5081292;28;20478;-46
2021/12/12 06:50:50;;;;;;;6.60;2.20;;;4.10;98.70;;;;;;5066043;28;21763;-47
2021/12/12 06:53:20;;;;;;;7.10;3.37;;;4.00;98.70;;;;;;5076188;28;20478;-46
2021/12/12 06:55:49;;;;;;;6.97;2.67;;;4.00;98.50;;;;;;5074431;28;20599;-47
2021/12/12 06:58:18;;;;;;;12.40;3.27;;;4.00;99.10;;;;;;5073495;28;20489;-47
2021/12/12 07:00:50;;;;;;;12.33;4.50;;;4.00;98.60;;;;;;5071385;28;20490;-47
2021/12/12 07:03:19;;;;;;;7.13;2.83;;;4.00;98.70;;;;;;5077796;28;20478;-47
2021/12/12 07:05:47;;;;;;;6.77;2.90;;;4.00;98.80;;;;;;5076887;28;20483;-46
2021/12/12 07:08:15;;;;;;;7.80;3.63;;;4.00;98.70;;;;;;5076084;28;20481;-46
2021/12/12 07:10:44;;;;;;;3.90;2.70;;;4.00;98.60;;;;;;5064321;28;20991;-47
2021/12/12 07:13:11;;;;;;;8.17;2.93;;;4.10;98.80;;;;;;5076476;28;20493;-47
2021/12/12 07:15:49;;;;;;;7.10;3.77;;;4.10;98.70;;;;;;5078108;28;20505;-47
2021/12/12 07:18:20;;;;;;;7.90;3.10;;;4.20;98.60;;;;;;5071683;28;21439;-46
2021/12/12 07:20:49;;;;;;;9.93;2.67;;;4.20;98.40;;;;;;5058294;28;20962;-47
2021/12/12 07:23:16;;;;;;;9.20;2.73;;;4.20;98.50;;;;;;5078013;28;20498;-47
2021/12/12 07:25:44;;;;;;;8.13;2.30;;;4.30;98.70;;;;;;5079036;28;20481;-47
2021/12/12 07:28:11;;;;;;;5.23;2.37;;;4.30;98.60;;;;;;5068412;28;20477;-47
2021/12/12 07:30:39;;;;;;;6.07;2.90;;;4.30;98.60;;;;;;5070187;28;20518;-47
2021/12/12 07:33:08;;;;;;;8.43;3.07;;;4.30;98.40;;;;;;5070477;28;21018;-47
2021/12/12 07:35:38;;;;;;;13.73;3.23;;;4.20;98.50;;;;;;5071408;28;20544;-47
2021/12/12 07:38:07;;;;;;;2.70;2.10;;;4.30;98.50;;;;;;5066549;28;20523;-47
2021/12/12 07:40:35;;;;;;;5.50;3.20;;;4.30;98.50;;;;;;5072557;28;20487;-47
2021/12/12 07:43:02;;;;;;;3.97;2.20;;;4.30;98.50;;;;;;5068446;28;21007;-46
2021/12/12 07:45:29;;;;;;;6.50;2.87;;;4.40;98.40;;;;;;5072097;28;20490;-47
2021/12/12 07:47:56;;;;;;;7.80;2.43;;;4.50;98.40;;;;;;5069417;28;20471;-47
2021/12/12 07:50:26;;;;;;;14.70;3.20;;;4.50;98.20;;;;;;5070512;28;20486;-46
2021/12/12 07:52:53;;;;;;;10.50;4.17;;;4.60;98.50;;;;;;5072017;28;20490;-48
2021/12/12 07:55:20;;;;;;;12.80;2.47;;;4.60;98.10;;;;;;5064075;28;20523;-46
2021/12/12 07:57:47;;;;;;;11.20;2.10;;;4.50;98.00;;;;;;5064481;28;20489;-47
2021/12/12 08:00:18;;;;;;;4.37;2.53;;;4.60;98.20;;;;;;5077884;28;20486;-46
2021/12/12 08:02:47;;;;;;;10.93;2.93;;;4.60;98.20;;;;;;5067505;28;20555;-47
2021/12/12 08:05:16;;;;;;;8.13;3.80;;;4.60;98.40;;;;;;5067914;28;20869;-47
2021/12/12 08:07:45;;;;;;;7.50;3.67;;;4.60;98.00;;;;;;5077827;28;20972;-47
2021/12/12 08:10:16;;;;;;;4.97;2.30;;;4.60;98.10;;;;;;5071022;28;20481;-47
2021/12/12 08:12:44;;;;;;;8.90;3.30;;;4.60;98.30;;;;;;5073410;28;20491;-47
2021/12/12 08:15:13;;;;;;;7.27;3.40;;;4.60;98.10;;;;;;5071174;28;20487;-47
2021/12/12 08:17:42;;;;;;;10.03;3.30;;;4.60;98.20;;;;;;5062427;28;20479;-47
2021/12/12 08:20:14;;;;;;;2.93;2.10;;;4.60;98.10;;;;;;5068358;28;20532;-47
2021/12/12 08:22:41;;;;;;;8.20;3.43;;;4.60;98.30;;;;;;5070263;28;20483;-47
2021/12/12 08:25:12;;;;;;;5.30;3.27;;;4.70;98.10;;;;;;5067743;28;20829;-47
2021/12/12 08:27:40;;;;;;;8.10;3.10;;;4.70;98.20;;;;;;5067163;28;20493;-48
2021/12/12 08:30:10;;;;;;;5.80;3.30;;;4.70;98.40;;;;;;5069371;28;21117;-47
2021/12/12 08:32:37;;;;;;;7.37;3.70;;;4.70;98.20;;;;;;5062097;28;20498;-47
2021/12/12 08:35:08;;;;;;;4.87;3.47;;;4.70;98.30;;;;;;5088731;28;20489;-49
2021/12/12 08:37:35;;;;;;;13.43;4.30;;;4.70;98.30;;;;;;5065865;28;20488;-47
2021/12/12 08:40:06;;;;;;;5.43;3.47;;;4.70;98.20;;;;;;5044619;28;20523;-47
2021/12/12 08:42:35;;;;;;;2.70;2.30;;;4.70;98.20;;;;;;5072364;28;20559;-47
2021/12/12 08:45:09;;;;;;;12.50;4.47;;;4.80;98.50;;;;;;5072567;28;20527;-47
2021/12/12 08:47:37;;;;;;;12.30;4.00;;;4.70;98.20;;;;;;5076956;28;20486;-47
2021/12/12 08:50:06;;;;;;;13.07;4.50;;;4.80;98.20;;;;;;5073369;28;20473;-47
2021/12/12 08:52:37;;;;;;;7.17;3.50;;;4.80;98.20;;;;;;5074492;28;20482;-47
2021/12/12 08:55:08;;;;;;;9.23;3.33;;;4.80;98.40;;;;;;5075445;28;20489;-47
2021/12/12 08:57:45;;;;;;;6.43;3.20;;;4.90;98.30;;;;;;5080625;28;20504;-47
2021/12/12 09:00:16;;;;;;;6.30;2.90;;;4.90;98.10;;;;;;5065133;28;20466;-48
2021/12/12 09:02:44;;;;;;;3.87;2.70;;;5.00;98.60;;;;;;5061323;28;20498;-47
2021/12/12 09:05:17;;;;;;;5.50;4.23;;;5.00;98.10;;;;;;5069871;28;20508;-47
2021/12/12 09:07:48;;;;;;;3.80;2.33;;;5.00;98.00;;;;;;5073864;27;20500;-47
2021/12/12 09:10:21;;;;;;;9.67;3.30;;;5.10;98.00;;;;;;5075595;28;20486;-46
2021/12/12 09:12:59;;;;;;;5.60;2.90;;;5.10;97.90;;;;;;5070169;28;20475;-47
2021/12/12 09:15:30;;;;;;;4.47;3.47;;;5.10;97.60;;;;;;5078492;28;21155;-48
2021/12/12 09:18:02;;;;;;;4.17;3.30;;;5.10;97.70;;;;;;5078500;28;20486;-47
2021/12/12 09:20:35;;;;;;;9.40;3.50;;;5.20;98.20;;;;;;5076366;28;20536;-47
2021/12/12 09:23:07;;;;;;;8.60;3.33;;;5.20;97.90;;;;;;5077073;28;20494;-47
2021/12/12 09:25:41;;;;;;;7.17;3.83;;;5.20;97.70;;;;;;5087870;28;20497;-47
2021/12/12 09:28:17;;;;;;;10.03;3.00;;;5.30;97.70;;;;;;5081599;28;20479;-47
2021/12/12 09:30:45;;;;;;;8.83;3.67;;;5.30;98.30;;;;;;5077362;28;20494;-48
2021/12/12 09:33:18;;;;;;;5.83;2.80;;;5.40;98.20;;;;;;5073715;28;20511;-46
2021/12/12 09:35:50;;;;;;;7.70;3.50;;;5.30;97.80;;;;;;5079418;28;20483;-48
2021/12/12 09:38:23;;;;;;;9.27;2.40;;;5.40;97.70;;;;;;5080826;28;20475;-47
2021/12/12 09:41:13;;;;;;;4.07;2.10;;;5.40;97.50;;;;;;5081606;28;20479;-48
2021/12/12 09:44:03;;;;;;;3.60;1.87;;;5.40;97.60;;;;;;5074982;28;20475;-50
2021/12/12 09:46:57;;;;;;;3.67;2.67;;;5.40;97.70;;;;;;5069261;28;21008;-47
2021/12/12 09:53:10;;;;;;;7.53;3.57;;;5.40;97.70;;;;;;5075944;28;20525;-47
2021/12/12 09:55:44;;;;;;;9.60;3.83;;;5.40;97.90;;;;;;5068494;28;20489;-47
2021/12/12 09:58:20;;;;;;;8.23;4.00;;;5.40;97.90;;;;;;5077832;28;20491;-47
2021/12/12 10:00:58;;;;;;;11.03;4.10;;;5.40;98.20;;;;;;5065991;28;20486;-47
2021/12/12 10:03:33;;;;;;;5.17;2.40;;;5.50;97.90;;;;;;5092338;28;21012;-47
2021/12/12 10:06:08;;;;;;;4.70;3.00;;;5.50;97.80;;;;;;5050432;28;20473;-46
2021/12/12 10:08:51;;;;;;;5.87;3.43;;;5.60;98.10;;;;;;5061748;28;20486;-48
2021/12/12 10:11:27;;;;;;;11.20;3.00;;;5.70;98.20;;;;;;5076961;28;20495;-47
2021/12/12 10:14:01;;;;;;;9.37;3.47;;;5.70;98.40;;;;;;5084089;28;20590;-47
2021/12/12 10:16:38;;;;;;;13.17;3.60;;;5.70;97.80;;;;;;5077461;28;20477;-47
2021/12/12 10:19:12;;;;;;;9.53;4.10;;;5.60;98.40;;;;;;5066190;28;20555;-47
2021/12/12 10:21:47;;;;;;;4.77;2.00;;;5.50;98.20;;;;;;5069208;28;20982;-56
2021/12/12 10:24:34;;;;;;;12.33;3.40;;;5.60;98.30;;;;;;5080903;28;20492;-48
2021/12/12 10:27:08;;;;;;;11.00;3.73;;;5.60;98.50;;;;;;5067806;28;20493;-46
2021/12/12 10:29:42;;;;;;;9.00;3.60;;;5.60;98.50;;;;;;5072549;28;20486;-46
2021/12/12 10:32:15;;;;;;;9.67;3.17;;;5.50;99.00;;;;;;5080009;28;20487;-51
2021/12/12 10:34:46;;;;;;;8.03;3.30;;;5.60;99.20;;;;;;5085639;28;20479;-47
2021/12/12 10:37:18;;;;;;;19.07;3.10;;;5.70;99.10;;;;;;5075375;28;20992;-47
2021/12/12 10:39:49;;;;;;;11.33;3.37;;;5.70;99.10;;;;;;5078918;28;20822;-48
2021/12/12 10:42:19;;;;;;;15.67;3.90;;;5.70;99.40;;;;;;5080823;28;20483;-47
2021/12/12 10:44:49;;;;;;;7.90;2.50;;;5.70;99.20;;;;;;5081941;28;20483;-46
2021/12/12 10:47:30;;;;;;;8.17;2.77;;;5.70;99.50;;;;;;5072373;28;20494;-46
2021/12/12 10:50:10;;;;;;;4.70;3.97;;;5.60;99.40;;;;;;5079668;28;20956;-47
2021/12/12 10:52:40;;;;;;;3.60;1.90;;;5.60;99.50;;;;;;5076196;28;21078;-46
2021/12/12 10:55:13;;;;;;;7.60;2.77;;;5.60;99.60;;;;;;5078466;28;20482;-47
2021/12/12 10:57:42;;;;;;;7.93;3.80;;;5.60;99.70;;;;;;5080645;28;20482;-48
2021/12/12 11:00:14;;;;;;;9.10;3.63;;;5.60;99.80;;;;;;5074990;28;20479;-47
2021/12/12 11:02:50;;;;;;;10.90;4.63;;;5.70;99.90;;;;;;5077208;28;20478;-47
2021/12/12 11:05:22;;;;;;;5.40;2.63;;;5.50;99.90;;;;;;5054587;28;21065;-47
2021/12/12 11:07:54;;;;;;;8.37;4.77;;;5.60;99.90;;;;;;5076179;28;20512;-45
2021/12/12 11:10:24;;;;;;;9.07;3.03;;;5.60;99.90;;;;;;5059949;28;20489;-49
2021/12/12 11:12:56;;;;;;;6.30;3.40;;;5.70;99.90;;;;;;5070811;28;20802;-47
2021/12/12 11:15:28;;;;;;;5.17;3.20;;;5.70;99.90;;;;;;5072428;28;20581;-51
2021/12/12 11:18:04;;;;;;;15.57;4.13;;;5.70;99.90;;;;;;5075857;28;20483;-47
2021/12/12 11:20:36;;;;;;;8.30;2.43;;;5.80;99.90;;;;;;5068115;28;20501;-48
2021/12/12 11:23:08;;;;;;;5.40;3.43;;;5.70;99.90;;;;;;5066769;28;20479;-47
2021/12/12 11:25:39;;;;;;;8.13;2.40;;;5.70;99.90;;;;;;5068822;28;21181;-45
2021/12/12 11:28:12;;;;;;;3.87;2.60;;;5.80;99.90;;;;;;5068309;28;20588;-46
2021/12/12 11:30:42;;;;;;;6.57;2.80;;;5.80;99.90;;;;;;5073961;28;21228;-46
2021/12/12 11:33:14;;;;;;;12.30;3.10;;;5.90;99.90;;;;;;5070349;28;20472;-47
2021/12/12 11:35:45;;;;;;;5.23;2.80;;;6.00;99.90;;;;;;5082329;28;20499;-47
2021/12/12 11:38:18;;;;;;;6.90;4.40;;;6.00;99.90;;;;;;5076215;28;20483;-46
2021/12/12 11:40:48;;;;;;;7.63;3.90;;;5.90;99.90;;;;;;5069377;28;20498;-47
2021/12/12 11:43:24;;;;;;;7.73;4.17;;;5.90;99.90;;;;;;5083283;28;20488;-46
2021/12/12 11:45:57;;;;;;;17.80;3.63;;;5.80;99.90;;;;;;5073232;28;20492;-46
2021/12/12 11:48:34;;;;;;;8.03;3.10;;;5.90;99.90;;;;;;5070172;28;20826;-45
2021/12/12 11:51:08;;;;;;;8.27;3.60;;;5.90;99.90;;;;;;5070727;28;20471;-46
2021/12/12 11:53:39;;;;;;;11.13;4.87;;;5.80;99.90;;;;;;5085269;28;20503;-46
2021/12/12 11:56:12;;;;;;;6.47;3.23;;;5.80;99.90;;;;;;5048202;28;20829;-46
2021/12/12 11:58:45;;;;;;;6.53;3.37;;;5.90;99.90;;;;;;5069734;28;20538;-52
2021/12/12 12:01:22;;;;;;;10.23;4.50;;;5.80;99.90;;;;;;5074592;28;20544;-47
2021/12/12 12:04:11;;;;;;;16.30;5.73;;;5.80;99.90;;;;;;5071707;28;20501;-46
2021/12/12 12:06:50;;;;;;;6.73;4.10;;;5.80;99.90;;;;;;5066874;28;20482;-45
2021/12/12 12:09:35;;;;;;;4.13;3.73;;;5.90;99.90;;;;;;5074000;28;20460;-46
2021/12/12 12:12:11;;;;;;;5.13;2.73;;;5.90;99.90;;;;;;5072823;28;20484;-45
2021/12/12 12:14:48;;;;;;;13.43;6.00;;;6.00;99.90;;;;;;5073183;28;20487;-46
2021/12/12 12:17:25;;;;;;;6.47;2.07;;;6.00;99.90;;;;;;5079159;28;20525;-45
2021/12/12 12:20:06;;;;;;;4.97;2.30;;;6.10;99.90;;;;;;5064256;28;20514;-46
2021/12/12 12:22:42;;;;;;;8.30;4.47;;;6.00;99.90;;;;;;5068048;28;20495;-45
2021/12/12 12:25:19;;;;;;;6.47;2.90;;;6.00;99.90;;;;;;5073792;28;20471;-46
2021/12/12 12:27:53;;;;;;;5.30;2.80;;;6.10;99.90;;;;;;5041609;28;20844;-46
2021/12/12 12:31:00;;;;;;;13.83;3.87;;;6.20;99.90;;;;;;5075960;28;21431;-47
2021/12/12 12:33:54;;;;;;;7.83;3.90;;;6.20;99.90;;;;;;5059113;28;20478;-45
2021/12/12 12:36:58;;;;;;;11.13;4.43;;;6.20;99.90;;;;;;5070668;28;20487;-46
2021/12/12 12:40:02;;;;;;;6.40;3.90;;;6.10;99.90;;;;;;5067218;28;20478;-46
2021/12/12 12:43:03;;;;;;;15.00;3.27;;;6.10;99.90;;;;;;5080191;28;20873;-45
2021/12/12 12:46:07;;;;;;;7.87;3.40;;;6.10;99.90;;;;;;5046434;28;20532;-45
2021/12/12 12:49:11;;;;;;;13.70;3.50;;;6.00;99.90;;;;;;5078353;28;20511;-46
2021/12/12 12:52:15;;;;;;;5.73;2.67;;;6.10;99.90;;;;;;5077402;28;20478;-46
2021/12/12 12:54:48;;;;;;;3.00;2.17;;;6.20;99.90;;;;;;5072107;28;20540;-46
2021/12/12 12:57:23;;;;;;;8.10;3.47;;;6.10;99.90;;;;;;5070665;28;20899;-45
2021/12/12 13:00:06;;;;;;;5.87;1.87;;;6.30;99.90;;;;;;5061616;28;20481;-44
2021/12/12 13:02:56;;;;;;;10.10;2.60;;;6.40;99.90;;;;;;5067441;28;20605;-45
2021/12/12 13:06:07;;;;;;;10.30;3.47;;;6.40;99.90;;;;;;5073355;28;20472;-46
2021/12/12 13:09:21;;;;;;;9.50;2.87;;;6.40;99.90;;;;;;4999354;28;20479;-46
2021/12/12 13:12:20;;;;;;;12.07;6.00;;;6.40;99.90;;;;;;4996684;28;20667;-45
2021/12/12 13:14:53;;;;;;;8.83;3.93;;;6.30;99.90;;;;;;5074503;28;20479;-46
2021/12/12 13:17:36;;;;;;;7.80;4.60;;;6.30;99.90;;;;;;5078727;28;20477;-45
2021/12/12 13:20:32;;;;;;;16.00;4.30;;;6.30;99.90;;;;;;5066387;28;20543;-46
2021/12/12 13:23:10;;;;;;;9.37;3.43;;;6.30;99.90;;;;;;5077639;28;20480;-45
2021/12/12 13:25:42;;;;;;;3.10;2.30;;;6.40;99.90;;;;;;5069172;27;20497;-46
2021/12/12 13:28:18;;;;;;;8.80;3.33;;;6.50;99.90;;;;;;5085958;28;20488;-47
2021/12/12 13:30:59;;;;;;;12.87;3.93;;;6.50;99.90;;;;;;5083447;28;20980;-48
2021/12/12 13:33:33;;;;;;;6.63;3.47;;;6.50;99.90;;;;;;5073806;28;20491;-46
2021/12/12 13:36:14;;;;;;;12.70;4.30;;;6.50;99.90;;;;;;5084732;28;20490;-46
2021/12/12 13:39:06;;;;;;;20.63;5.30;;;6.50;99.90;;;;;;5067844;28;20592;-47